createdAt,value
2022-12-04T00:01:29.677Z,63.26
2022-12-04T00:04:36.047Z,64.30
2022-12-04T00:07:41.448Z,64.36
2022-12-04T00:10:48.125Z,63.31
2022-12-04T00:14:00.274Z,63.89
2022-12-04T00:17:11.458Z,63.63
2022-12-04T00:20:16.880Z,64.03
2022-12-04T00:23:23.199Z,63.38
2022-12-04T00:26:31.348Z,63.13
2022-12-04T00:29:40.435Z,64.15
2022-12-04T00:32:46.474Z,63.49
2022-12-04T00:36:00.027Z,64.11
2022-12-04T00:39:09.236Z,62.83
2022-12-04T00:42:15.468Z,64.23
2022-12-04T00:45:23.945Z,63.54
2022-12-04T00:48:30.302Z,63.55
2022-12-04T00:51:35.818Z,63.39
2022-12-04T00:54:42.212Z,62.44
2022-12-04T00:57:47.618Z,62.49
2022-12-04T01:01:07.584Z,63.01
2022-12-04T01:04:13.289Z,62.98
2022-12-04T01:07:19.527Z,62.79
2022-12-04T01:10:25.028Z,62.54
2022-12-04T01:13:31.443Z,63.27
2022-12-04T01:16:43.226Z,63.32
2022-12-04T01:19:49.609Z,63.06
2022-12-04T01:22:54.981Z,62.18
2022-12-04T01:26:03.068Z,62.15
2022-12-04T01:29:09.248Z,62.64
2022-12-04T01:32:18.811Z,63.64
2022-12-04T01:35:24.249Z,62.64
2022-12-04T01:38:31.876Z,62.41
2022-12-04T01:41:37.241Z,62.83
2022-12-04T01:44:47.577Z,63.47
2022-12-04T01:48:03.712Z,62.82
2022-12-04T01:51:20.909Z,63.49
2022-12-04T01:54:32.510Z,63.14
2022-12-04T01:57:39.797Z,64.08
2022-12-04T02:00:49.784Z,63.35
2022-12-04T02:04:06.402Z,62.68
2022-12-04T02:07:12.456Z,63.57
2022-12-04T02:10:24.555Z,62.88
2022-12-04T02:13:44.256Z,63.47
2022-12-04T02:17:06.591Z,62.90
2022-12-04T02:20:36.183Z,63.42
2022-12-04T02:24:28.351Z,62.99
2022-12-04T02:28:03.303Z,63.53
2022-12-04T02:31:22.048Z,63.52
2022-12-04T02:34:35.661Z,64.01
2022-12-04T02:37:48.797Z,63.07
2022-12-04T02:41:06.194Z,64.14
2022-12-04T02:44:24.796Z,63.26
2022-12-04T02:47:33.389Z,64.34
2022-12-04T02:50:44.420Z,64.27
2022-12-04T02:53:59.157Z,63.91
2022-12-04T02:57:17.505Z,64.49
2022-12-04T03:00:26.541Z,63.52
2022-12-04T03:03:37.973Z,64.64
2022-12-04T03:06:50.642Z,64.61
2022-12-04T03:10:03.453Z,64.84
2022-12-04T03:13:20.439Z,64.25
2022-12-04T03:16:39.094Z,65.17
2022-12-04T03:19:55.744Z,64.38
2022-12-04T03:23:12.817Z,64.37
2022-12-04T03:26:30.722Z,65.09
2022-12-04T03:29:47.724Z,64.65
2022-12-04T03:33:06.465Z,64.89
2022-12-04T03:36:24.197Z,64.65
2022-12-04T03:39:42.238Z,64.80
2022-12-04T03:42:59.631Z,64.73
2022-12-04T03:46:17.776Z,64.64
2022-12-04T03:49:41.217Z,65.08
2022-12-04T03:53:07.465Z,65.09
2022-12-04T03:56:22.544Z,64.29
2022-12-04T03:59:38.288Z,64.29
2022-12-04T04:02:55.823Z,64.62
2022-12-04T04:06:13.219Z,65.13
2022-12-04T04:09:27.810Z,65.38
2022-12-04T04:12:44.452Z,64.32
2022-12-04T04:16:16.043Z,65.00
2022-12-04T04:19:41.491Z,64.49
2022-12-04T04:23:14.201Z,64.97
2022-12-04T04:26:22.015Z,65.21
2022-12-04T04:29:29.566Z,64.99
2022-12-04T04:32:47.317Z,65.30
2022-12-04T04:36:03.948Z,64.96
2022-12-04T04:39:31.514Z,65.46
2022-12-04T04:42:50.192Z,64.60
2022-12-04T04:46:09.364Z,65.21
2022-12-04T04:49:20.564Z,65.30
2022-12-04T04:52:28.566Z,64.54
2022-12-04T04:55:39.860Z,65.28
2022-12-04T04:58:46.606Z,64.72
2022-12-04T05:01:53.357Z,65.19
2022-12-04T05:04:58.800Z,64.65
2022-12-04T05:08:07.696Z,64.45
2022-12-04T05:11:20.214Z,65.32
2022-12-04T05:14:26.673Z,65.58
2022-12-04T05:17:32.705Z,65.59
2022-12-04T05:20:42.370Z,64.93
2022-12-04T05:23:48.072Z,65.05
2022-12-04T05:26:56.994Z,65.61
2022-12-04T05:30:03.354Z,64.87
2022-12-04T05:33:09.555Z,65.20
2022-12-04T05:36:16.463Z,64.63
2022-12-04T05:39:22.681Z,64.96
2022-12-04T05:42:30.885Z,64.38
2022-12-04T05:45:37.058Z,64.42
2022-12-04T05:48:42.442Z,64.62
2022-12-04T05:51:48.677Z,65.04
2022-12-04T05:54:54.098Z,64.55
2022-12-04T05:58:03.304Z,65.43
2022-12-04T06:01:14.249Z,65.50
2022-12-04T06:04:20.525Z,65.12
2022-12-04T06:07:25.871Z,65.51
2022-12-04T06:10:33.241Z,65.60
2022-12-04T06:13:43.159Z,65.68
2022-12-04T06:16:50.213Z,65.24
2022-12-04T06:19:56.855Z,65.47
2022-12-04T06:23:03.422Z,65.43
2022-12-04T06:26:11.350Z,64.96
2022-12-04T06:29:20.454Z,64.52
2022-12-04T06:32:25.951Z,64.51
2022-12-04T06:35:32.120Z,65.59
2022-12-04T06:38:38.143Z,65.15
2022-12-04T06:41:44.658Z,65.14
2022-12-04T06:44:53.025Z,64.72
2022-12-04T06:47:59.430Z,64.80
2022-12-04T06:51:08.129Z,65.57
2022-12-04T06:54:15.207Z,65.06
2022-12-04T06:57:20.749Z,64.77
2022-12-04T07:00:30.166Z,64.99
2022-12-04T07:03:35.718Z,65.15
2022-12-04T07:06:43.640Z,65.07
2022-12-04T07:09:49.237Z,64.46
2022-12-04T07:12:55.424Z,65.36
2022-12-04T07:16:07.926Z,65.59
2022-12-04T07:19:16.675Z,65.73
2022-12-04T07:22:21.989Z,66.00
2022-12-04T07:25:29.677Z,65.16
2022-12-04T07:28:36.000Z,65.96
2022-12-04T07:31:45.187Z,65.81
2022-12-04T07:34:51.530Z,65.46
2022-12-04T07:37:57.791Z,66.03
2022-12-04T07:41:06.606Z,65.95
2022-12-04T07:44:12.818Z,64.94
2022-12-04T07:47:20.995Z,64.90
2022-12-04T07:50:27.454Z,65.10
2022-12-04T07:53:32.836Z,65.43
2022-12-04T07:56:39.176Z,65.25
2022-12-04T07:59:44.521Z,64.75
2022-12-04T08:02:53.723Z,64.36
2022-12-04T08:06:04.266Z,64.83
2022-12-04T08:09:11.501Z,65.43
2022-12-04T08:12:16.811Z,64.61
2022-12-04T08:15:23.005Z,64.17
2022-12-04T08:18:31.185Z,64.24
2022-12-04T08:21:37.645Z,64.26
2022-12-04T08:24:43.212Z,64.09
2022-12-04T08:27:50.254Z,64.18
2022-12-04T08:30:56.963Z,63.88
2022-12-04T08:34:11.611Z,64.14
2022-12-04T08:37:19.138Z,64.45
2022-12-04T08:40:27.459Z,64.65
2022-12-04T08:43:34.310Z,63.97
2022-12-04T08:46:41.832Z,63.17
2022-12-04T08:49:51.945Z,63.82
2022-12-04T08:52:58.919Z,63.74
2022-12-04T08:56:06.551Z,64.07
2022-12-04T08:59:17.245Z,64.45
2022-12-04T09:02:23.452Z,63.68
2022-12-04T09:05:33.877Z,63.43
2022-12-04T09:08:40.912Z,63.18
2022-12-04T09:11:49.488Z,62.86
2022-12-04T09:14:55.444Z,63.86
2022-12-04T09:18:06.614Z,62.81
2022-12-04T09:21:19.370Z,62.84
2022-12-04T09:24:26.489Z,62.22
2022-12-04T09:27:33.266Z,62.91
2022-12-04T09:30:41.849Z,63.38
2022-12-04T09:33:52.767Z,63.29
2022-12-04T09:37:07.409Z,63.39
2022-12-04T09:40:37.743Z,62.22
2022-12-04T09:43:58.792Z,62.37
2022-12-04T09:47:18.922Z,62.09
2022-12-04T09:50:36.468Z,62.38
2022-12-04T09:53:58.634Z,62.54
2022-12-04T09:57:25.229Z,61.30
2022-12-04T10:00:38.508Z,61.60
2022-12-04T10:03:47.280Z,60.56
2022-12-04T10:07:08.693Z,61.05
2022-12-04T10:10:38.964Z,60.50
2022-12-04T10:14:07.747Z,61.14
2022-12-04T10:17:51.684Z,60.78
2022-12-04T10:21:33.837Z,61.59
2022-12-04T10:24:55.552Z,61.28
2022-12-04T10:28:22.962Z,60.41
2022-12-04T10:31:37.680Z,60.04
2022-12-04T10:34:49.680Z,60.77
2022-12-04T10:38:08.135Z,60.24
2022-12-04T10:41:29.188Z,60.64
2022-12-04T10:44:42.701Z,60.52
2022-12-04T10:47:57.252Z,59.96
2022-12-04T10:51:07.184Z,59.59
2022-12-04T10:54:35.781Z,59.07
2022-12-04T10:57:48.347Z,59.41
2022-12-04T11:01:12.593Z,59.74
2022-12-04T11:04:30.735Z,58.98
2022-12-04T11:07:49.667Z,59.21
2022-12-04T11:11:06.961Z,60.51
2022-12-04T11:14:21.409Z,60.27
2022-12-04T11:17:34.654Z,60.10
2022-12-04T11:20:47.919Z,61.14
2022-12-04T11:23:59.032Z,60.33
2022-12-04T11:27:19.868Z,60.63
2022-12-04T11:30:36.765Z,61.85
2022-12-04T11:33:53.737Z,61.73
2022-12-04T11:37:03.247Z,62.07
2022-12-04T11:40:23.469Z,61.22
2022-12-04T11:43:38.077Z,60.96
2022-12-04T11:46:58.857Z,60.98
2022-12-04T11:50:30.934Z,61.00
2022-12-04T11:53:55.936Z,60.79
2022-12-04T11:57:25.239Z,60.81
2022-12-04T12:00:32.913Z,61.02
2022-12-04T12:04:03.673Z,61.91
2022-12-04T12:07:38.820Z,62.27
2022-12-04T12:11:03.120Z,62.08
2022-12-04T12:14:24.279Z,62.16
2022-12-04T12:17:47.069Z,62.28
2022-12-04T12:21:08.422Z,61.87
2022-12-04T12:24:32.512Z,62.32
2022-12-04T12:28:08.697Z,62.10
2022-12-04T12:31:44.976Z,62.16
2022-12-04T12:34:52.614Z,61.36
2022-12-04T12:38:08.597Z,61.77
2022-12-04T12:41:25.226Z,61.97
2022-12-04T12:44:48.568Z,60.91
2022-12-04T12:48:06.229Z,60.71
2022-12-04T12:51:33.372Z,61.37
2022-12-04T12:54:49.106Z,61.39
2022-12-04T12:58:10.481Z,60.38
2022-12-04T13:01:25.588Z,60.57
2022-12-04T13:04:43.886Z,60.89
2022-12-04T13:08:03.219Z,61.63
2022-12-04T13:11:16.585Z,61.71
2022-12-04T13:14:24.777Z,61.87
2022-12-04T13:17:43.252Z,61.38
2022-12-04T13:21:00.086Z,61.46
2022-12-04T13:24:46.968Z,60.80
2022-12-04T13:28:18.147Z,61.60
2022-12-04T13:31:49.506Z,62.07
2022-12-04T13:35:10.140Z,61.20
2022-12-04T13:38:34.272Z,62.33
2022-12-04T13:41:42.975Z,61.73
2022-12-04T13:44:59.163Z,61.88
2022-12-04T13:48:09.691Z,61.78
2022-12-04T13:51:39.116Z,62.18
2022-12-04T13:54:44.665Z,62.14
2022-12-04T13:57:58.233Z,62.22
2022-12-04T14:01:13.305Z,63.89
2022-12-04T14:04:43.448Z,63.94
2022-12-04T14:08:08.354Z,63.75
2022-12-04T14:11:23.972Z,65.15
2022-12-04T14:14:38.115Z,65.57
2022-12-04T14:18:31.262Z,64.59
2022-12-04T14:21:48.557Z,65.74
2022-12-04T14:24:55.209Z,65.97
2022-12-04T14:28:01.372Z,65.95
2022-12-04T14:31:28.959Z,65.99
2022-12-04T14:34:39.872Z,64.55
2022-12-04T14:38:09.697Z,65.84
2022-12-04T14:41:30.732Z,64.84
2022-12-04T14:44:59.094Z,65.83
2022-12-04T14:48:38.760Z,65.26
2022-12-04T14:52:16.199Z,64.44
2022-12-04T14:55:55.270Z,65.59
2022-12-04T14:59:25.576Z,64.91
2022-12-04T15:02:50.897Z,64.38
2022-12-04T15:06:23.778Z,64.57
2022-12-04T15:10:07.687Z,65.22
2022-12-04T15:13:37.512Z,65.58
2022-12-04T15:17:08.691Z,65.45
2022-12-04T15:20:45.741Z,64.78
2022-12-04T15:24:12.487Z,64.30
2022-12-04T15:27:38.214Z,64.60
2022-12-04T15:31:08.870Z,65.73
2022-12-04T15:34:44.892Z,64.35
2022-12-04T15:38:07.824Z,65.47
2022-12-04T15:41:35.829Z,64.88
2022-12-04T15:45:03.061Z,64.52
2022-12-04T15:48:34.768Z,65.18
2022-12-04T15:52:06.677Z,64.77
2022-12-04T15:55:30.504Z,65.46
2022-12-04T15:59:00.604Z,65.34
2022-12-04T16:02:33.533Z,66.02
2022-12-04T16:06:07.980Z,66.17
2022-12-04T16:09:32.638Z,67.17
2022-12-04T16:12:57.472Z,66.04
2022-12-04T16:16:24.050Z,65.90
2022-12-04T16:19:46.083Z,65.72
2022-12-04T16:23:10.424Z,65.81
2022-12-04T16:26:30.799Z,65.44
2022-12-04T16:29:51.463Z,66.35
2022-12-04T16:33:15.857Z,66.50
2022-12-04T16:36:37.353Z,64.91
2022-12-04T16:40:06.560Z,66.17
2022-12-04T16:43:27.289Z,66.16
2022-12-04T16:46:47.938Z,65.69
2022-12-04T16:50:10.700Z,66.00
2022-12-04T16:53:30.997Z,65.27
2022-12-04T16:56:54.343Z,65.06
2022-12-04T17:00:17.945Z,66.12
2022-12-04T17:03:38.823Z,65.42
2022-12-04T17:06:59.490Z,65.29
2022-12-04T17:10:23.948Z,64.35
2022-12-04T17:13:48.600Z,64.91
2022-12-04T17:17:08.972Z,65.57
2022-12-04T17:20:30.213Z,65.05
2022-12-04T17:23:50.771Z,65.10
2022-12-04T17:27:14.393Z,64.81
2022-12-04T17:30:37.516Z,64.60
2022-12-04T17:34:00.982Z,64.76
2022-12-04T17:37:23.001Z,64.70
2022-12-04T17:40:43.308Z,65.96
2022-12-04T17:44:04.672Z,64.70
2022-12-04T17:47:27.840Z,65.57
2022-12-04T17:50:48.193Z,65.01
2022-12-04T17:54:10.345Z,66.10
2022-12-04T17:57:31.487Z,66.01
2022-12-04T18:00:52.940Z,66.58
2022-12-04T18:04:16.111Z,65.00
2022-12-04T18:07:36.966Z,65.71
2022-12-04T18:10:57.732Z,65.91
2022-12-04T18:14:23.724Z,64.99
2022-12-04T18:17:44.206Z,64.86
2022-12-04T18:21:12.084Z,64.61
2022-12-04T18:24:32.450Z,65.16
2022-12-04T18:27:53.423Z,64.71
2022-12-04T18:31:14.901Z,64.16
2022-12-04T18:34:35.925Z,64.79
2022-12-04T18:37:59.072Z,63.61
2022-12-04T18:41:19.501Z,63.81
2022-12-04T18:44:39.859Z,63.77
2022-12-04T18:48:00.386Z,65.01
2022-12-04T18:51:27.049Z,64.74
2022-12-04T18:54:50.169Z,64.84
2022-12-04T18:58:10.773Z,64.04
2022-12-04T19:01:32.186Z,64.97
2022-12-04T19:04:52.611Z,64.77
2022-12-04T19:08:15.741Z,63.89
2022-12-04T19:11:39.799Z,65.01
2022-12-04T19:15:00.167Z,64.18
2022-12-04T19:18:27.462Z,65.08
2022-12-04T19:21:53.647Z,65.36
2022-12-04T19:25:14.005Z,65.14
2022-12-04T19:28:37.709Z,64.67
2022-12-04T19:31:59.720Z,64.17
2022-12-04T19:35:22.757Z,65.16
2022-12-04T19:38:44.376Z,65.46
2022-12-04T19:42:07.748Z,64.48
2022-12-04T19:45:33.838Z,64.01
2022-12-04T19:48:56.990Z,63.87
2022-12-04T19:52:17.633Z,64.18
2022-12-04T19:55:39.466Z,65.31
2022-12-04T19:59:08.046Z,65.29
2022-12-04T20:02:31.257Z,64.74
2022-12-04T20:05:51.701Z,64.46
2022-12-04T20:09:15.706Z,64.41
2022-12-04T20:12:36.077Z,63.99
2022-12-04T20:15:56.536Z,64.96
2022-12-04T20:19:22.504Z,64.36
2022-12-04T20:22:42.851Z,63.58
2022-12-04T20:26:08.815Z,63.69
2022-12-04T20:29:29.499Z,63.65
2022-12-04T20:32:49.831Z,64.83
2022-12-04T20:36:15.555Z,64.86
2022-12-04T20:39:38.716Z,63.97
2022-12-04T20:43:03.981Z,65.09
2022-12-04T20:46:31.768Z,64.58
2022-12-04T20:49:52.814Z,64.15
2022-12-04T20:53:16.519Z,64.07
2022-12-04T20:56:40.315Z,64.30
2022-12-04T21:00:00.890Z,64.03
2022-12-04T21:03:22.708Z,64.13
2022-12-04T21:06:44.950Z,64.41
2022-12-04T21:10:11.659Z,63.68
2022-12-04T21:13:47.911Z,64.90
2022-12-04T21:17:11.904Z,64.18
2022-12-04T21:20:32.513Z,64.27
2022-12-04T21:23:52.848Z,63.73
2022-12-04T21:27:20.957Z,65.17
2022-12-04T21:30:41.786Z,64.32
2022-12-04T21:34:11.053Z,63.95
2022-12-04T21:37:31.632Z,64.05
2022-12-04T21:40:52.636Z,64.63
2022-12-04T21:44:18.987Z,64.33
2022-12-04T21:47:40.240Z,63.82
2022-12-04T21:51:01.137Z,64.30
2022-12-04T21:54:22.780Z,63.81
2022-12-04T21:57:43.175Z,64.03
2022-12-04T22:01:12.705Z,63.85
2022-12-04T22:04:33.227Z,64.13
2022-12-04T22:07:53.707Z,64.03
2022-12-04T22:11:18.323Z,65.05
2022-12-04T22:14:38.658Z,63.71
2022-12-04T22:18:03.884Z,64.50
2022-12-04T22:21:25.284Z,64.07
2022-12-04T22:24:45.604Z,63.71
2022-12-04T22:28:08.170Z,64.47
2022-12-04T22:31:31.473Z,64.09
2022-12-04T22:34:54.594Z,64.40
2022-12-04T22:38:15.087Z,64.84
2022-12-04T22:41:35.569Z,64.06
2022-12-04T22:44:56.255Z,64.94
2022-12-04T22:48:16.607Z,65.00
2022-12-04T22:51:39.717Z,64.49
2022-12-04T22:55:00.079Z,64.95
2022-12-04T22:58:25.861Z,64.77
2022-12-04T23:01:46.146Z,64.76
2022-12-04T23:05:08.828Z,65.17
2022-12-04T23:08:32.331Z,66.06
2022-12-04T23:11:56.256Z,65.32
2022-12-04T23:15:16.654Z,65.74
2022-12-04T23:18:38.786Z,65.56
2022-12-04T23:21:59.196Z,65.57
2022-12-04T23:25:22.316Z,65.09
2022-12-04T23:28:43.443Z,65.44
2022-12-04T23:32:03.894Z,65.00
2022-12-04T23:35:24.318Z,64.65
2022-12-04T23:38:47.016Z,65.36
2022-12-04T23:42:10.568Z,64.98
2022-12-04T23:45:31.865Z,64.68
2022-12-04T23:48:52.460Z,64.74
2022-12-04T23:52:12.766Z,64.71
2022-12-04T23:55:34.728Z,65.20
2022-12-04T23:59:03.373Z,64.78
